sensor_id;sensor_type;location;lat;lon;timestamp;P1;durP1;ratioP1;P2;durP2;ratioP2
3415;SDS011;1721;51.238;9.562;2022-08-04T00:00:05;7.40;;;3.60;;
3415;SDS011;1721;51.238;9.562;2022-08-04T00:02:38;9.77;;;3.40;;
3415;SDS011;1721;51.238;9.562;2022-08-04T00:08:00;7.47;;;3.67;;
3415;SDS011;1721;51.238;9.562;2022-08-04T00:10:32;10.38;;;3.33;;
3415;SDS011;1721;51.238;9.562;2022-08-04T00:12:59;10.30;;;3.60;;
3415;SDS011;1721;51.238;9.562;2022-08-04T00:15:27;6.07;;;3.30;;
3415;SDS011;1721;51.238;9.562;2022-08-04T00:17:59;8.70;;;3.42;;
3415;SDS011;1721;51.238;9.562;2022-08-04T00:20:29;6.80;;;3.53;;
3415;SDS011;1721;51.238;9.562;2022-08-04T00:22:56;6.72;;;3.70;;
3415;SDS011;1721;51.238;9.562;2022-08-04T00:25:23;6.00;;;3.58;;
3415;SDS011;1721;51.238;9.562;2022-08-04T00:27:50;9.88;;;3.65;;
3415;SDS011;1721;51.238;9.562;2022-08-04T00:30:15;8.40;;;3.60;;
3415;SDS011;1721;51.238;9.562;2022-08-04T00:32:41;7.57;;;3.50;;
3415;SDS011;1721;51.238;9.562;2022-08-04T00:35:07;7.78;;;3.40;;
3415;SDS011;1721;51.238;9.562;2022-08-04T00:37:34;7.53;;;3.60;;
3415;SDS011;1721;51.238;9.562;2022-08-04T00:40:02;8.70;;;3.58;;
3415;SDS011;1721;51.238;9.562;2022-08-04T00:42:45;7.30;;;3.70;;
3415;SDS011;1721;51.238;9.562;2022-08-04T00:50:44;12.32;;;3.53;;
3415;SDS011;1721;51.238;9.562;2022-08-04T00:53:33;8.27;;;3.97;;
3415;SDS011;1721;51.238;9.562;2022-08-04T00:56:29;6.57;;;3.33;;
3415;SDS011;1721;51.238;9.562;2022-08-04T00:59:32;10.68;;;3.35;;
3415;SDS011;1721;51.238;9.562;2022-08-04T01:08:27;8.98;;;3.70;;
3415;SDS011;1721;51.238;9.562;2022-08-04T01:11:10;7.80;;;3.50;;
3415;SDS011;1721;51.238;9.562;2022-08-04T01:16:33;7.85;;;4.00;;
3415;SDS011;1721;51.238;9.562;2022-08-04T01:19:00;7.45;;;3.80;;
3415;SDS011;1721;51.238;9.562;2022-08-04T01:21:36;9.50;;;3.40;;
3415;SDS011;1721;51.238;9.562;2022-08-04T01:24:28;9.65;;;3.63;;
3415;SDS011;1721;51.238;9.562;2022-08-04T01:29:30;6.82;;;3.50;;
3415;SDS011;1721;51.238;9.562;2022-08-04T01:34:29;6.93;;;3.77;;
3415;SDS011;1721;51.238;9.562;2022-08-04T01:37:07;10.98;;;3.75;;
3415;SDS011;1721;51.238;9.562;2022-08-04T01:39:49;7.35;;;3.83;;
3415;SDS011;1721;51.238;9.562;2022-08-04T01:42:21;9.40;;;3.40;;
3415;SDS011;1721;51.238;9.562;2022-08-04T01:44:50;9.30;;;3.90;;
3415;SDS011;1721;51.238;9.562;2022-08-04T01:47:19;6.45;;;3.10;;
3415;SDS011;1721;51.238;9.562;2022-08-04T01:49:46;9.02;;;3.97;;
3415;SDS011;1721;51.238;9.562;2022-08-04T01:52:15;6.40;;;3.50;;
3415;SDS011;1721;51.238;9.562;2022-08-04T01:54:42;8.52;;;3.78;;
3415;SDS011;1721;51.238;9.562;2022-08-04T01:57:08;11.90;;;3.80;;
3415;SDS011;1721;51.238;9.562;2022-08-04T01:59:35;6.32;;;3.60;;
3415;SDS011;1721;51.238;9.562;2022-08-04T02:02:03;5.97;;;3.50;;
3415;SDS011;1721;51.238;9.562;2022-08-04T02:04:30;6.77;;;3.60;;
3415;SDS011;1721;51.238;9.562;2022-08-04T02:10:14;6.05;;;3.30;;
3415;SDS011;1721;51.238;9.562;2022-08-04T02:13:09;7.97;;;3.70;;
3415;SDS011;1721;51.238;9.562;2022-08-04T02:16:03;6.70;;;3.30;;
3415;SDS011;1721;51.238;9.562;2022-08-04T02:18:39;7.53;;;3.30;;
3415;SDS011;1721;51.238;9.562;2022-08-04T02:21:29;5.93;;;3.43;;
3415;SDS011;1721;51.238;9.562;2022-08-04T02:24:00;6.28;;;3.55;;
3415;SDS011;1721;51.238;9.562;2022-08-04T02:26:33;8.85;;;3.15;;
3415;SDS011;1721;51.238;9.562;2022-08-04T02:29:19;10.43;;;3.60;;
3415;SDS011;1721;51.238;9.562;2022-08-04T02:34:32;8.50;;;3.80;;
3415;SDS011;1721;51.238;9.562;2022-08-04T02:37:06;5.07;;;3.10;;
3415;SDS011;1721;51.238;9.562;2022-08-04T02:39:34;12.80;;;3.60;;
3415;SDS011;1721;51.238;9.562;2022-08-04T02:42:01;8.97;;;3.43;;
3415;SDS011;1721;51.238;9.562;2022-08-04T02:44:29;8.82;;;3.45;;
3415;SDS011;1721;51.238;9.562;2022-08-04T02:46:55;9.25;;;3.58;;
3415;SDS011;1721;51.238;9.562;2022-08-04T02:49:23;6.50;;;3.43;;
3415;SDS011;1721;51.238;9.562;2022-08-04T02:51:51;6.50;;;3.50;;
3415;SDS011;1721;51.238;9.562;2022-08-04T02:54:20;7.93;;;3.42;;
3415;SDS011;1721;51.238;9.562;2022-08-04T02:56:50;5.90;;;3.25;;
3415;SDS011;1721;51.238;9.562;2022-08-04T02:59:17;8.48;;;3.38;;
3415;SDS011;1721;51.238;9.562;2022-08-04T03:01:47;8.75;;;3.65;;
3415;SDS011;1721;51.238;9.562;2022-08-04T03:04:14;8.00;;;3.50;;
3415;SDS011;1721;51.238;9.562;2022-08-04T03:10:09;5.88;;;3.10;;
3415;SDS011;1721;51.238;9.562;2022-08-04T03:20:44;7.30;;;3.40;;
3415;SDS011;1721;51.238;9.562;2022-08-04T03:34:27;10.45;;;3.30;;
3415;SDS011;1721;51.238;9.562;2022-08-04T03:37:28;7.57;;;3.17;;
3415;SDS011;1721;51.238;9.562;2022-08-04T03:51:37;5.55;;;3.13;;
3415;SDS011;1721;51.238;9.562;2022-08-04T03:54:38;9.93;;;3.20;;
3415;SDS011;1721;51.238;9.562;2022-08-04T04:00:17;8.32;;;3.20;;
3415;SDS011;1721;51.238;9.562;2022-08-04T04:03:00;5.28;;;3.00;;
3415;SDS011;1721;51.238;9.562;2022-08-04T04:06:07;8.60;;;3.60;;
3415;SDS011;1721;51.238;9.562;2022-08-04T04:31:07;5.47;;;3.13;;
3415;SDS011;1721;51.238;9.562;2022-08-04T04:39:17;5.65;;;3.25;;
3415;SDS011;1721;51.238;9.562;2022-08-04T04:41:58;6.40;;;3.30;;
3415;SDS011;1721;51.238;9.562;2022-08-04T04:44:49;6.75;;;3.10;;
3415;SDS011;1721;51.238;9.562;2022-08-04T04:47:41;6.82;;;3.10;;
3415;SDS011;1721;51.238;9.562;2022-08-04T04:50:12;8.38;;;3.10;;
3415;SDS011;1721;51.238;9.562;2022-08-04T04:52:46;7.13;;;3.63;;
3415;SDS011;1721;51.238;9.562;2022-08-04T04:55:33;10.70;;;2.90;;
3415;SDS011;1721;51.238;9.562;2022-08-04T04:58:04;8.05;;;3.10;;
3415;SDS011;1721;51.238;9.562;2022-08-04T05:03:17;9.02;;;4.15;;
3415;SDS011;1721;51.238;9.562;2022-08-04T05:05:58;8.55;;;3.80;;
3415;SDS011;1721;51.238;9.562;2022-08-04T05:08:41;6.10;;;3.60;;
3415;SDS011;1721;51.238;9.562;2022-08-04T05:11:45;9.35;;;3.78;;
3415;SDS011;1721;51.238;9.562;2022-08-04T05:14:30;5.97;;;3.30;;
3415;SDS011;1721;51.238;9.562;2022-08-04T05:17:03;8.50;;;3.30;;
3415;SDS011;1721;51.238;9.562;2022-08-04T05:19:42;7.50;;;3.10;;
3415;SDS011;1721;51.238;9.562;2022-08-04T05:22:10;6.43;;;3.88;;
3415;SDS011;1721;51.238;9.562;2022-08-04T05:24:43;9.13;;;3.15;;
3415;SDS011;1721;51.238;9.562;2022-08-04T05:27:27;5.95;;;3.03;;
3415;SDS011;1721;51.238;9.562;2022-08-04T05:30:00;6.38;;;3.65;;
3415;SDS011;1721;51.238;9.562;2022-08-04T05:32:31;7.50;;;3.30;;
3415;SDS011;1721;51.238;9.562;2022-08-04T05:35:07;8.77;;;2.80;;
3415;SDS011;1721;51.238;9.562;2022-08-04T05:37:37;9.30;;;3.25;;
3415;SDS011;1721;51.238;9.562;2022-08-04T05:40:05;7.20;;;3.20;;
3415;SDS011;1721;51.238;9.562;2022-08-04T05:42:34;7.28;;;3.15;;
3415;SDS011;1721;51.238;9.562;2022-08-04T05:45:02;5.97;;;3.50;;
3415;SDS011;1721;51.238;9.562;2022-08-04T05:47:29;7.75;;;3.60;;
3415;SDS011;1721;51.238;9.562;2022-08-04T05:49:56;6.85;;;2.90;;
3415;SDS011;1721;51.238;9.562;2022-08-04T05:52:24;8.63;;;3.30;;
3415;SDS011;1721;51.238;9.562;2022-08-04T05:54:50;7.60;;;3.10;;
3415;SDS011;1721;51.238;9.562;2022-08-04T05:57:16;11.10;;;3.30;;
3415;SDS011;1721;51.238;9.562;2022-08-04T05:59:43;6.97;;;3.22;;
3415;SDS011;1721;51.238;9.562;2022-08-04T06:02:13;9.23;;;3.35;;
3415;SDS011;1721;51.238;9.562;2022-08-04T06:04:42;7.50;;;3.17;;
3415;SDS011;1721;51.238;9.562;2022-08-04T06:07:11;6.03;;;3.20;;
3415;SDS011;1721;51.238;9.562;2022-08-04T06:09:38;8.73;;;3.60;;
3415;SDS011;1721;51.238;9.562;2022-08-04T06:12:08;6.57;;;2.92;;
3415;SDS011;1721;51.238;9.562;2022-08-04T06:14:43;7.97;;;3.22;;
3415;SDS011;1721;51.238;9.562;2022-08-04T06:17:14;6.60;;;3.10;;
3415;SDS011;1721;51.238;9.562;2022-08-04T06:19:45;7.38;;;2.90;;
3415;SDS011;1721;51.238;9.562;2022-08-04T06:22:13;8.37;;;3.00;;
3415;SDS011;1721;51.238;9.562;2022-08-04T06:24:41;6.93;;;3.00;;
3415;SDS011;1721;51.238;9.562;2022-08-04T06:27:12;6.60;;;2.70;;
3415;SDS011;1721;51.238;9.562;2022-08-04T06:29:38;5.80;;;2.95;;
3415;SDS011;1721;51.238;9.562;2022-08-04T06:32:05;6.85;;;3.08;;
3415;SDS011;1721;51.238;9.562;2022-08-04T06:34:49;9.20;;;3.05;;
3415;SDS011;1721;51.238;9.562;2022-08-04T06:37:17;5.38;;;2.90;;
3415;SDS011;1721;51.238;9.562;2022-08-04T06:39:44;12.07;;;3.30;;
3415;SDS011;1721;51.238;9.562;2022-08-04T06:42:10;7.90;;;3.00;;
3415;SDS011;1721;51.238;9.562;2022-08-04T06:44:36;6.90;;;3.10;;
3415;SDS011;1721;51.238;9.562;2022-08-04T06:47:04;6.90;;;3.10;;
3415;SDS011;1721;51.238;9.562;2022-08-04T06:49:30;9.77;;;3.50;;
3415;SDS011;1721;51.238;9.562;2022-08-04T06:51:57;5.97;;;3.10;;
3415;SDS011;1721;51.238;9.562;2022-08-04T06:54:26;11.33;;;3.40;;
3415;SDS011;1721;51.238;9.562;2022-08-04T06:56:52;8.30;;;3.20;;
3415;SDS011;1721;51.238;9.562;2022-08-04T06:59:21;7.55;;;3.50;;
3415;SDS011;1721;51.238;9.562;2022-08-04T07:01:48;8.00;;;3.30;;
3415;SDS011;1721;51.238;9.562;2022-08-04T07:04:15;11.73;;;3.42;;
3415;SDS011;1721;51.238;9.562;2022-08-04T07:06:40;7.65;;;3.30;;
3415;SDS011;1721;51.238;9.562;2022-08-04T07:09:06;10.57;;;3.30;;
3415;SDS011;1721;51.238;9.562;2022-08-04T07:11:32;5.80;;;3.20;;
3415;SDS011;1721;51.238;9.562;2022-08-04T07:13:59;7.30;;;3.90;;
3415;SDS011;1721;51.238;9.562;2022-08-04T07:16:25;7.50;;;3.85;;
3415;SDS011;1721;51.238;9.562;2022-08-04T07:18:52;10.57;;;3.50;;
3415;SDS011;1721;51.238;9.562;2022-08-04T07:21:20;8.33;;;3.50;;
3415;SDS011;1721;51.238;9.562;2022-08-04T07:23:47;6.22;;;3.58;;
3415;SDS011;1721;51.238;9.562;2022-08-04T07:26:13;7.30;;;3.70;;
3415;SDS011;1721;51.238;9.562;2022-08-04T07:28:41;8.57;;;3.88;;
3415;SDS011;1721;51.238;9.562;2022-08-04T07:31:08;8.00;;;3.30;;
3415;SDS011;1721;51.238;9.562;2022-08-04T07:33:37;7.55;;;3.30;;
3415;SDS011;1721;51.238;9.562;2022-08-04T07:36:04;13.00;;;3.45;;
3415;SDS011;1721;51.238;9.562;2022-08-04T07:38:30;9.50;;;3.40;;
3415;SDS011;1721;51.238;9.562;2022-08-04T07:40:55;5.93;;;3.30;;
3415;SDS011;1721;51.238;9.562;2022-08-04T07:43:21;6.50;;;3.30;;
3415;SDS011;1721;51.238;9.562;2022-08-04T07:45:47;8.32;;;3.13;;
3415;SDS011;1721;51.238;9.562;2022-08-04T07:48:13;7.00;;;2.90;;
3415;SDS011;1721;51.238;9.562;2022-08-04T07:50:41;8.17;;;3.40;;
3415;SDS011;1721;51.238;9.562;2022-08-04T07:53:08;9.88;;;3.47;;
3415;SDS011;1721;51.238;9.562;2022-08-04T07:55:37;9.50;;;3.30;;
3415;SDS011;1721;51.238;9.562;2022-08-04T07:58:02;7.57;;;3.70;;
3415;SDS011;1721;51.238;9.562;2022-08-04T08:00:29;7.93;;;3.20;;
3415;SDS011;1721;51.238;9.562;2022-08-04T08:02:55;11.20;;;3.70;;
3415;SDS011;1721;51.238;9.562;2022-08-04T08:05:21;7.82;;;3.50;;
3415;SDS011;1721;51.238;9.562;2022-08-04T08:07:50;8.93;;;3.00;;
3415;SDS011;1721;51.238;9.562;2022-08-04T08:10:16;6.65;;;3.03;;
3415;SDS011;1721;51.238;9.562;2022-08-04T08:12:41;7.20;;;3.20;;
3415;SDS011;1721;51.238;9.562;2022-08-04T08:15:08;6.15;;;2.92;;
3415;SDS011;1721;51.238;9.562;2022-08-04T08:17:36;11.00;;;3.35;;
3415;SDS011;1721;51.238;9.562;2022-08-04T08:20:02;7.75;;;3.20;;
3415;SDS011;1721;51.238;9.562;2022-08-04T08:22:30;6.53;;;2.90;;
3415;SDS011;1721;51.238;9.562;2022-08-04T08:24:56;5.90;;;3.00;;
3415;SDS011;1721;51.238;9.562;2022-08-04T08:27:21;4.80;;;2.22;;
3415;SDS011;1721;51.238;9.562;2022-08-04T08:29:47;5.40;;;2.67;;
3415;SDS011;1721;51.238;9.562;2022-08-04T08:32:13;5.45;;;2.50;;
3415;SDS011;1721;51.238;9.562;2022-08-04T08:34:40;4.10;;;2.10;;
3415;SDS011;1721;51.238;9.562;2022-08-04T08:42:21;4.03;;;2.10;;
3415;SDS011;1721;51.238;9.562;2022-08-04T08:56:10;6.97;;;2.22;;
3415;SDS011;1721;51.238;9.562;2022-08-04T09:12:55;3.95;;;1.98;;
3415;SDS011;1721;51.238;9.562;2022-08-04T09:23:50;5.47;;;1.73;;
3415;SDS011;1721;51.238;9.562;2022-08-04T09:26:23;6.88;;;2.00;;
3415;SDS011;1721;51.238;9.562;2022-08-04T09:29:07;4.28;;;1.88;;
3415;SDS011;1721;51.238;9.562;2022-08-04T09:31:39;3.70;;;1.80;;
3415;SDS011;1721;51.238;9.562;2022-08-04T09:34:13;3.20;;;1.67;;
3415;SDS011;1721;51.238;9.562;2022-08-04T09:36:52;3.50;;;1.80;;
3415;SDS011;1721;51.238;9.562;2022-08-04T09:39:55;4.90;;;2.10;;
3415;SDS011;1721;51.238;9.562;2022-08-04T09:42:49;4.20;;;2.00;;
3415;SDS011;1721;51.238;9.562;2022-08-04T09:45:42;4.63;;;1.90;;
3415;SDS011;1721;51.238;9.562;2022-08-04T09:48:16;5.32;;;2.10;;
3415;SDS011;1721;51.238;9.562;2022-08-04T09:50:52;3.40;;;1.85;;
3415;SDS011;1721;51.238;9.562;2022-08-04T09:53:32;5.00;;;1.90;;
3415;SDS011;1721;51.238;9.562;2022-08-04T10:01:25;5.43;;;2.25;;
3415;SDS011;1721;51.238;9.562;2022-08-04T10:03:55;4.55;;;2.20;;
3415;SDS011;1721;51.238;9.562;2022-08-04T10:06:31;4.32;;;1.80;;
3415;SDS011;1721;51.238;9.562;2022-08-04T10:26:01;5.20;;;1.98;;
3415;SDS011;1721;51.238;9.562;2022-08-04T10:28:40;4.20;;;2.10;;
3415;SDS011;1721;51.238;9.562;2022-08-04T10:31:12;3.35;;;1.60;;
3415;SDS011;1721;51.238;9.562;2022-08-04T10:33:51;4.72;;;1.92;;
3415;SDS011;1721;51.238;9.562;2022-08-04T10:36:26;3.70;;;1.95;;
3415;SDS011;1721;51.238;9.562;2022-08-04T10:39:02;3.88;;;1.80;;
3415;SDS011;1721;51.238;9.562;2022-08-04T10:46:56;6.82;;;2.30;;
3415;SDS011;1721;51.238;9.562;2022-08-04T10:49:34;6.32;;;1.90;;
3415;SDS011;1721;51.238;9.562;2022-08-04T10:54:38;3.90;;;1.80;;
3415;SDS011;1721;51.238;9.562;2022-08-04T11:00:05;3.60;;;1.90;;
3415;SDS011;1721;51.238;9.562;2022-08-04T11:02:38;3.85;;;2.00;;
3415;SDS011;1721;51.238;9.562;2022-08-04T11:07:49;4.70;;;1.97;;
3415;SDS011;1721;51.238;9.562;2022-08-04T11:10:19;4.90;;;2.20;;
3415;SDS011;1721;51.238;9.562;2022-08-04T11:12:47;3.33;;;1.83;;
3415;SDS011;1721;51.238;9.562;2022-08-04T11:15:20;3.50;;;1.90;;
3415;SDS011;1721;51.238;9.562;2022-08-04T11:17:51;4.55;;;1.80;;
3415;SDS011;1721;51.238;9.562;2022-08-04T11:20:34;5.60;;;1.90;;
3415;SDS011;1721;51.238;9.562;2022-08-04T11:25:39;4.30;;;2.00;;
3415;SDS011;1721;51.238;9.562;2022-08-04T11:28:14;4.95;;;2.25;;
3415;SDS011;1721;51.238;9.562;2022-08-04T11:31:07;5.20;;;2.10;;
3415;SDS011;1721;51.238;9.562;2022-08-04T11:39:35;5.70;;;2.10;;
3415;SDS011;1721;51.238;9.562;2022-08-04T11:44:47;3.33;;;1.80;;
3415;SDS011;1721;51.238;9.562;2022-08-04T11:49:51;5.20;;;1.90;;
3415;SDS011;1721;51.238;9.562;2022-08-04T11:52:22;4.30;;;1.90;;
3415;SDS011;1721;51.238;9.562;2022-08-04T11:54:50;5.05;;;2.30;;
3415;SDS011;1721;51.238;9.562;2022-08-04T11:57:16;3.95;;;1.92;;
3415;SDS011;1721;51.238;9.562;2022-08-04T11:59:42;4.50;;;2.05;;
3415;SDS011;1721;51.238;9.562;2022-08-04T12:04:55;6.90;;;2.35;;
3415;SDS011;1721;51.238;9.562;2022-08-04T12:15:41;4.53;;;1.90;;
3415;SDS011;1721;51.238;9.562;2022-08-04T12:18:24;4.75;;;2.00;;
3415;SDS011;1721;51.238;9.562;2022-08-04T12:20:57;7.40;;;1.87;;
3415;SDS011;1721;51.238;9.562;2022-08-04T12:23:28;6.20;;;2.00;;
3415;SDS011;1721;51.238;9.562;2022-08-04T12:25:59;7.22;;;1.90;;
3415;SDS011;1721;51.238;9.562;2022-08-04T12:28:40;5.78;;;2.10;;
3415;SDS011;1721;51.238;9.562;2022-08-04T12:34:08;3.58;;;1.80;;
3415;SDS011;1721;51.238;9.562;2022-08-04T12:36:46;5.40;;;2.17;;
3415;SDS011;1721;51.238;9.562;2022-08-04T12:39:37;4.13;;;1.90;;
3415;SDS011;1721;51.238;9.562;2022-08-04T12:44:43;3.83;;;1.90;;
3415;SDS011;1721;51.238;9.562;2022-08-04T12:47:13;9.05;;;2.00;;
3415;SDS011;1721;51.238;9.562;2022-08-04T12:49:43;5.90;;;2.00;;
3415;SDS011;1721;51.238;9.562;2022-08-04T12:52:12;8.57;;;2.10;;
3415;SDS011;1721;51.238;9.562;2022-08-04T12:54:40;3.28;;;1.90;;
3415;SDS011;1721;51.238;9.562;2022-08-04T12:57:09;4.88;;;1.80;;
3415;SDS011;1721;51.238;9.562;2022-08-04T12:59:37;3.90;;;1.80;;
3415;SDS011;1721;51.238;9.562;2022-08-04T13:02:04;4.65;;;1.88;;
3415;SDS011;1721;51.238;9.562;2022-08-04T13:04:33;7.03;;;2.20;;
3415;SDS011;1721;51.238;9.562;2022-08-04T13:07:04;5.00;;;1.90;;
3415;SDS011;1721;51.238;9.562;2022-08-04T13:09:34;4.03;;;1.70;;
3415;SDS011;1721;51.238;9.562;2022-08-04T13:12:03;3.15;;;1.73;;
3415;SDS011;1721;51.238;9.562;2022-08-04T13:14:36;5.78;;;2.08;;
3415;SDS011;1721;51.238;9.562;2022-08-04T13:17:08;5.70;;;2.40;;
3415;SDS011;1721;51.238;9.562;2022-08-04T13:19:35;4.50;;;1.80;;
3415;SDS011;1721;51.238;9.562;2022-08-04T13:22:01;3.65;;;1.90;;
3415;SDS011;1721;51.238;9.562;2022-08-04T13:24:27;3.63;;;1.80;;
3415;SDS011;1721;51.238;9.562;2022-08-04T13:26:58;4.70;;;1.60;;
3415;SDS011;1721;51.238;9.562;2022-08-04T13:29:28;5.00;;;1.70;;
3415;SDS011;1721;51.238;9.562;2022-08-04T13:32:00;3.42;;;1.80;;
3415;SDS011;1721;51.238;9.562;2022-08-04T13:34:28;6.70;;;1.90;;
3415;SDS011;1721;51.238;9.562;2022-08-04T13:36:56;6.80;;;1.95;;
3415;SDS011;1721;51.238;9.562;2022-08-04T13:39:22;3.40;;;2.00;;
3415;SDS011;1721;51.238;9.562;2022-08-04T13:41:52;3.40;;;1.80;;
3415;SDS011;1721;51.238;9.562;2022-08-04T13:44:20;3.65;;;1.55;;
3415;SDS011;1721;51.238;9.562;2022-08-04T13:46:52;6.60;;;1.77;;
3415;SDS011;1721;51.238;9.562;2022-08-04T13:49:24;4.63;;;1.90;;
3415;SDS011;1721;51.238;9.562;2022-08-04T13:51:50;6.27;;;1.60;;
3415;SDS011;1721;51.238;9.562;2022-08-04T13:54:20;3.70;;;1.83;;
3415;SDS011;1721;51.238;9.562;2022-08-04T13:56:47;8.60;;;1.75;;
3415;SDS011;1721;51.238;9.562;2022-08-04T13:59:16;3.40;;;1.60;;
3415;SDS011;1721;51.238;9.562;2022-08-04T14:01:44;5.40;;;1.40;;
3415;SDS011;1721;51.238;9.562;2022-08-04T14:04:21;4.70;;;1.42;;
3415;SDS011;1721;51.238;9.562;2022-08-04T14:06:51;3.30;;;1.30;;
3415;SDS011;1721;51.238;9.562;2022-08-04T14:09:23;3.47;;;1.42;;
3415;SDS011;1721;51.238;9.562;2022-08-04T14:11:55;2.83;;;1.57;;
3415;SDS011;1721;51.238;9.562;2022-08-04T14:14:31;3.28;;;1.60;;
3415;SDS011;1721;51.238;9.562;2022-08-04T14:27:46;11.02;;;2.10;;
3415;SDS011;1721;51.238;9.562;2022-08-04T14:30:22;2.90;;;1.70;;
3415;SDS011;1721;51.238;9.562;2022-08-04T14:33:11;3.72;;;1.60;;
3415;SDS011;1721;51.238;9.562;2022-08-04T14:35:37;3.10;;;1.20;;
3415;SDS011;1721;51.238;9.562;2022-08-04T14:38:04;4.30;;;1.77;;
3415;SDS011;1721;51.238;9.562;2022-08-04T14:40:32;2.80;;;1.48;;
3415;SDS011;1721;51.238;9.562;2022-08-04T14:43:02;4.03;;;1.40;;
3415;SDS011;1721;51.238;9.562;2022-08-04T14:45:30;2.70;;;1.50;;
3415;SDS011;1721;51.238;9.562;2022-08-04T14:48:21;3.80;;;1.40;;
3415;SDS011;1721;51.238;9.562;2022-08-04T14:50:47;3.72;;;1.67;;
3415;SDS011;1721;51.238;9.562;2022-08-04T14:53:15;4.03;;;1.27;;
3415;SDS011;1721;51.238;9.562;2022-08-04T14:55:46;3.40;;;1.42;;
3415;SDS011;1721;51.238;9.562;2022-08-04T14:58:17;5.70;;;1.40;;
3415;SDS011;1721;51.238;9.562;2022-08-04T15:00:46;2.70;;;1.30;;
3415;SDS011;1721;51.238;9.562;2022-08-04T15:03:13;4.90;;;1.40;;
3415;SDS011;1721;51.238;9.562;2022-08-04T15:05:40;3.27;;;1.50;;
3415;SDS011;1721;51.238;9.562;2022-08-04T15:08:06;4.47;;;1.40;;
3415;SDS011;1721;51.238;9.562;2022-08-04T15:10:32;2.67;;;1.40;;
3415;SDS011;1721;51.238;9.562;2022-08-04T15:12:58;5.28;;;1.40;;
3415;SDS011;1721;51.238;9.562;2022-08-04T15:15:26;3.55;;;1.20;;
3415;SDS011;1721;51.238;9.562;2022-08-04T15:17:53;4.13;;;1.40;;
3415;SDS011;1721;51.238;9.562;2022-08-04T15:20:19;4.50;;;1.45;;
3415;SDS011;1721;51.238;9.562;2022-08-04T15:22:45;3.73;;;1.50;;
3415;SDS011;1721;51.238;9.562;2022-08-04T15:25:11;3.40;;;1.50;;
3415;SDS011;1721;51.238;9.562;2022-08-04T15:27:38;3.38;;;1.40;;
3415;SDS011;1721;51.238;9.562;2022-08-04T15:30:11;3.30;;;1.50;;
3415;SDS011;1721;51.238;9.562;2022-08-04T15:32:49;3.72;;;1.60;;
3415;SDS011;1721;51.238;9.562;2022-08-04T15:35:20;4.93;;;1.50;;
3415;SDS011;1721;51.238;9.562;2022-08-04T15:38:02;3.40;;;1.30;;
3415;SDS011;1721;51.238;9.562;2022-08-04T15:46:41;3.10;;;1.60;;
3415;SDS011;1721;51.238;9.562;2022-08-04T15:49:17;3.30;;;1.45;;
3415;SDS011;1721;51.238;9.562;2022-08-04T15:51:44;2.83;;;1.38;;
3415;SDS011;1721;51.238;9.562;2022-08-04T15:56:42;4.13;;;1.40;;
3415;SDS011;1721;51.238;9.562;2022-08-04T15:59:09;3.20;;;1.50;;
3415;SDS011;1721;51.238;9.562;2022-08-04T16:01:34;4.67;;;1.70;;
3415;SDS011;1721;51.238;9.562;2022-08-04T16:04:04;4.80;;;1.50;;
3415;SDS011;1721;51.238;9.562;2022-08-04T16:06:45;3.55;;;1.50;;
3415;SDS011;1721;51.238;9.562;2022-08-04T16:09:24;4.97;;;1.98;;
3415;SDS011;1721;51.238;9.562;2022-08-04T16:11:51;4.68;;;1.77;;
3415;SDS011;1721;51.238;9.562;2022-08-04T16:14:29;3.90;;;1.70;;
3415;SDS011;1721;51.238;9.562;2022-08-04T16:16:55;5.15;;;1.60;;
3415;SDS011;1721;51.238;9.562;2022-08-04T16:19:52;3.97;;;1.88;;
3415;SDS011;1721;51.238;9.562;2022-08-04T16:22:30;5.97;;;1.70;;
3415;SDS011;1721;51.238;9.562;2022-08-04T16:25:04;2.72;;;1.40;;
3415;SDS011;1721;51.238;9.562;2022-08-04T16:27:35;3.50;;;1.70;;
3415;SDS011;1721;51.238;9.562;2022-08-04T16:30:03;3.53;;;1.60;;
3415;SDS011;1721;51.238;9.562;2022-08-04T16:32:37;5.45;;;1.83;;
3415;SDS011;1721;51.238;9.562;2022-08-04T16:35:16;3.47;;;1.80;;
3415;SDS011;1721;51.238;9.562;2022-08-04T16:37:48;3.80;;;1.90;;
3415;SDS011;1721;51.238;9.562;2022-08-04T16:40:29;3.85;;;1.77;;
3415;SDS011;1721;51.238;9.562;2022-08-04T16:42:56;4.93;;;1.60;;
3415;SDS011;1721;51.238;9.562;2022-08-04T16:45:37;3.50;;;1.80;;
3415;SDS011;1721;51.238;9.562;2022-08-04T16:48:21;3.30;;;1.73;;
3415;SDS011;1721;51.238;9.562;2022-08-04T16:53:18;6.97;;;1.70;;
3415;SDS011;1721;51.238;9.562;2022-08-04T16:55:46;10.48;;;1.75;;
3415;SDS011;1721;51.238;9.562;2022-08-04T16:58:13;9.80;;;1.67;;
3415;SDS011;1721;51.238;9.562;2022-08-04T17:00:39;9.50;;;1.40;;
3415;SDS011;1721;51.238;9.562;2022-08-04T17:03:05;10.70;;;1.50;;
3415;SDS011;1721;51.238;9.562;2022-08-04T17:05:34;5.53;;;1.50;;
3415;SDS011;1721;51.238;9.562;2022-08-04T17:08:01;18.90;;;1.80;;
3415;SDS011;1721;51.238;9.562;2022-08-04T17:10:30;5.25;;;1.52;;
3415;SDS011;1721;51.238;9.562;2022-08-04T17:12:56;6.35;;;1.40;;
3415;SDS011;1721;51.238;9.562;2022-08-04T17:15:22;3.63;;;1.52;;
3415;SDS011;1721;51.238;9.562;2022-08-04T17:17:49;5.65;;;1.30;;
3415;SDS011;1721;51.238;9.562;2022-08-04T17:20:15;8.47;;;1.37;;
3415;SDS011;1721;51.238;9.562;2022-08-04T17:22:41;7.20;;;1.70;;
3415;SDS011;1721;51.238;9.562;2022-08-04T17:25:07;7.20;;;1.50;;
3415;SDS011;1721;51.238;9.562;2022-08-04T17:27:33;8.03;;;1.50;;
3415;SDS011;1721;51.238;9.562;2022-08-04T17:30:00;6.50;;;1.40;;
3415;SDS011;1721;51.238;9.562;2022-08-04T17:32:25;4.88;;;1.38;;
3415;SDS011;1721;51.238;9.562;2022-08-04T17:34:55;6.88;;;1.80;;
3415;SDS011;1721;51.238;9.562;2022-08-04T17:37:23;3.00;;;1.30;;
3415;SDS011;1721;51.238;9.562;2022-08-04T17:39:50;8.20;;;1.45;;
3415;SDS011;1721;51.238;9.562;2022-08-04T17:42:31;3.10;;;1.60;;
3415;SDS011;1721;51.238;9.562;2022-08-04T17:45:07;8.10;;;1.92;;
3415;SDS011;1721;51.238;9.562;2022-08-04T17:47:49;5.15;;;1.70;;
3415;SDS011;1721;51.238;9.562;2022-08-04T17:50:25;4.00;;;1.50;;
3415;SDS011;1721;51.238;9.562;2022-08-04T17:53:01;4.10;;;1.60;;
3415;SDS011;1721;51.238;9.562;2022-08-04T17:56:03;7.70;;;1.88;;
3415;SDS011;1721;51.238;9.562;2022-08-04T17:58:21;4.20;;;1.50;;
3415;SDS011;1721;51.238;9.562;2022-08-04T18:00:59;6.53;;;1.80;;
3415;SDS011;1721;51.238;9.562;2022-08-04T18:03:26;5.90;;;1.80;;
3415;SDS011;1721;51.238;9.562;2022-08-04T18:05:53;3.90;;;1.55;;
3415;SDS011;1721;51.238;9.562;2022-08-04T18:08:25;6.13;;;1.80;;
3415;SDS011;1721;51.238;9.562;2022-08-04T18:10:51;6.43;;;2.10;;
3415;SDS011;1721;51.238;9.562;2022-08-04T18:13:18;7.13;;;2.00;;
3415;SDS011;1721;51.238;9.562;2022-08-04T18:15:45;5.07;;;2.08;;
3415;SDS011;1721;51.238;9.562;2022-08-04T18:18:18;9.30;;;2.20;;
3415;SDS011;1721;51.238;9.562;2022-08-04T18:20:45;7.45;;;2.17;;
3415;SDS011;1721;51.238;9.562;2022-08-04T18:23:11;11.57;;;2.33;;
3415;SDS011;1721;51.238;9.562;2022-08-04T18:25:38;6.03;;;2.00;;
3415;SDS011;1721;51.238;9.562;2022-08-04T18:28:08;9.45;;;2.38;;
3415;SDS011;1721;51.238;9.562;2022-08-04T18:30:34;4.82;;;1.92;;
3415;SDS011;1721;51.238;9.562;2022-08-04T18:33:00;3.75;;;1.90;;
3415;SDS011;1721;51.238;9.562;2022-08-04T18:35:27;5.25;;;2.20;;
3415;SDS011;1721;51.238;9.562;2022-08-04T18:37:54;5.60;;;1.83;;
3415;SDS011;1721;51.238;9.562;2022-08-04T18:40:20;4.78;;;1.95;;
3415;SDS011;1721;51.238;9.562;2022-08-04T18:42:45;5.63;;;2.23;;
3415;SDS011;1721;51.238;9.562;2022-08-04T18:45:11;5.77;;;2.23;;
3415;SDS011;1721;51.238;9.562;2022-08-04T18:47:37;7.68;;;2.60;;
3415;SDS011;1721;51.238;9.562;2022-08-04T18:50:03;5.47;;;2.60;;
3415;SDS011;1721;51.238;9.562;2022-08-04T18:52:30;10.13;;;2.10;;
3415;SDS011;1721;51.238;9.562;2022-08-04T18:54:55;5.32;;;2.45;;
3415;SDS011;1721;51.238;9.562;2022-08-04T18:57:22;6.30;;;2.50;;
3415;SDS011;1721;51.238;9.562;2022-08-04T18:59:49;10.23;;;2.40;;
3415;SDS011;1721;51.238;9.562;2022-08-04T19:02:15;4.95;;;2.17;;
3415;SDS011;1721;51.238;9.562;2022-08-04T19:04:41;9.80;;;2.50;;
3415;SDS011;1721;51.238;9.562;2022-08-04T19:07:07;7.20;;;2.40;;
3415;SDS011;1721;51.238;9.562;2022-08-04T19:09:33;7.13;;;2.30;;
3415;SDS011;1721;51.238;9.562;2022-08-04T19:11:59;9.50;;;2.70;;
3415;SDS011;1721;51.238;9.562;2022-08-04T19:14:25;9.70;;;2.40;;
3415;SDS011;1721;51.238;9.562;2022-08-04T19:16:50;11.80;;;2.87;;
3415;SDS011;1721;51.238;9.562;2022-08-04T19:19:16;7.45;;;2.60;;
3415;SDS011;1721;51.238;9.562;2022-08-04T19:21:42;13.05;;;2.80;;
3415;SDS011;1721;51.238;9.562;2022-08-04T19:24:08;7.77;;;2.60;;